Time;durP1;ratioP1;P1;durP2;ratioP2;P2;SDS_P1;SDS_P2;PMS_P1;PMS_P2;Temp;Humidity;BMP_temperature;BMP_pressure;BME280_temperature;BME280_humidity;BME280_pressure;Samples;Min_cycle;Max_cycle;Signal;HPM_P1;HPM_P2
2022/05/27 00:00:25;;;;;;;17.05;6.87;;;;;;;17.81;48.93;100713.05;124237;1102;104347;-79
2022/05/27 00:03:09;;;;;;;9.73;6.00;;;;;;;17.79;49.27;100714.78;124230;1102;104240;-79
2022/05/27 00:05:41;;;;;;;10.90;6.37;;;;;;;17.71;49.17;100706.75;124327;1102;102801;-79
2022/05/27 00:08:14;;;;;;;14.40;6.97;;;;;;;17.68;49.43;100716.45;124217;1102;104220;-79
2022/05/27 00:10:49;;;;;;;14.07;6.53;;;;;;;17.68;49.38;100708.48;124416;1102;104198;-79
2022/05/27 00:13:21;;;;;;;15.03;7.30;;;;;;;17.69;49.63;100703.20;124401;1102;102888;-78
2022/05/27 00:15:56;;;;;;;13.53;6.63;;;;;;;17.71;49.84;100711.17;124387;1102;104688;-79
2022/05/27 00:18:29;;;;;;;13.23;6.20;;;;;;;17.69;49.91;100707.63;124347;1102;104160;-79
2022/05/27 00:21:04;;;;;;;11.80;6.37;;;;;;;17.65;49.66;100705.80;124360;1102;104198;-79
2022/05/27 00:23:38;;;;;;;14.90;6.60;;;;;;;17.57;50.20;100692.45;124263;1102;104235;-79
2022/05/27 00:26:11;;;;;;;13.38;6.58;;;;;;;17.52;50.31;100700.38;124389;1102;104262;-79
2022/05/27 00:28:45;;;;;;;14.73;7.00;;;;;;;17.52;50.27;100689.76;124248;1102;104258;-79
2022/05/27 00:31:20;;;;;;;12.73;6.15;;;;;;;17.49;50.42;100689.73;124307;1102;102357;-79
2022/05/27 00:33:52;;;;;;;14.07;6.27;;;;;;;17.47;50.09;100691.48;124188;1102;104252;-79
2022/05/27 00:36:28;;;;;;;16.67;6.60;;;;;;;17.46;50.52;100691.47;124511;1102;102490;-78
2022/05/27 00:39:03;;;;;;;12.43;6.23;;;;;;;17.41;50.31;100694.07;124416;1102;104201;-78
2022/05/27 00:41:36;;;;;;;15.60;6.40;;;;;;;17.39;50.38;100695.80;124236;1102;103282;-79
2022/05/27 00:44:09;;;;;;;12.75;6.22;;;;;;;17.39;50.77;100687.84;124304;1102;102509;-78
2022/05/27 00:46:44;;;;;;;14.03;6.30;;;;;;;17.36;50.55;100693.14;124304;1102;101864;-79
2022/05/27 00:49:19;;;;;;;13.60;6.37;;;;;;;17.29;50.95;100686.85;124236;1102;102906;-79
2022/05/27 00:51:54;;;;;;;14.67;6.30;;;;;;;17.28;50.84;100689.48;124149;1102;104163;-79
2022/05/27 00:54:27;;;;;;;11.90;6.27;;;;;;;17.25;51.11;100679.76;124236;1101;103389;-79
2022/05/27 00:57:02;;;;;;;11.27;6.03;;;;;;;17.20;51.16;100677.05;124222;1102;104195;-78
2022/05/27 00:59:39;;;;;;;13.70;6.63;;;;;;;17.15;51.13;100669.91;124176;1102;102118;-78
2022/05/27 01:02:11;;;;;;;14.70;6.30;;;;;;;17.06;51.02;100673.33;124295;1102;102640;-79
2022/05/27 01:04:46;;;;;;;15.03;7.33;;;;;;;17.02;51.08;100676.84;124292;1102;104278;-78
2022/05/27 01:07:18;;;;;;;11.60;6.43;;;;;;;16.99;51.33;100674.14;124178;1102;104788;-78
2022/05/27 01:09:53;;;;;;;14.00;6.47;;;;;;;16.98;51.42;100675.00;124269;1102;104176;-78
2022/05/27 01:12:45;;;;;;;15.87;6.63;;;;;;;16.95;52.21;100665.24;124297;1102;104163;-79
2022/05/27 01:15:29;;;;;;;14.17;6.37;;;;;;;16.93;51.80;100668.77;124324;1103;102094;-79
2022/05/27 01:18:19;;;;;;;12.83;6.40;;;;;;;16.92;52.42;100666.98;124479;1102;104288;-79
2022/05/27 01:21:03;;;;;;;14.60;6.77;;;;;;;16.91;52.33;100666.09;124372;1102;104490;-78
2022/05/27 01:23:57;;;;;;;11.83;5.90;;;;;;;16.91;52.03;100660.80;124307;1102;104249;-78
2022/05/27 01:26:59;;;;;;;13.40;6.87;;;;;;;16.93;52.21;100660.81;124202;1102;104172;-79
2022/05/27 01:29:59;;;;;;;14.63;6.43;;;;;;;16.93;52.22;100660.81;124340;1102;104188;-78
2022/05/27 01:32:38;;;;;;;13.60;6.20;;;;;;;16.94;52.28;100658.19;124397;1102;104163;-79
2022/05/27 01:35:17;;;;;;;13.43;6.57;;;;;;;16.95;52.25;100656.41;124340;1102;104256;-79
2022/05/27 01:37:54;;;;;;;12.97;6.60;;;;;;;16.94;52.35;100650.23;124276;1102;104160;-78
2022/05/27 01:40:31;;;;;;;14.43;6.70;;;;;;;16.97;52.70;100652.92;124275;1102;102743;-78
2022/05/27 01:43:07;;;;;;;15.90;6.33;;;;;;;16.99;52.77;100653.82;124367;1101;102887;-78
2022/05/27 01:45:48;;;;;;;11.57;6.63;;;;;;;17.02;52.73;100647.67;124397;1102;103379;-79
2022/05/27 01:48:24;;;;;;;15.20;6.77;;;;;;;17.06;53.13;100646.81;124213;1102;104296;-78
2022/05/27 01:51:03;;;;;;;13.50;6.80;;;;;;;17.07;53.31;100649.48;124348;1102;104162;-78
2022/05/27 01:53:43;;;;;;;12.10;6.50;;;;;;;17.11;53.36;100646.87;124215;1102;103575;-78
2022/05/27 01:56:21;;;;;;;14.57;6.67;;;;;;;17.11;52.97;100641.56;124388;1101;104231;-78
2022/05/27 01:58:57;;;;;;;14.80;6.60;;;;;;;17.11;53.25;100650.44;124330;1102;104293;-79
2022/05/27 02:01:35;;;;;;;14.77;6.87;;;;;;;17.13;53.02;100645.15;124174;1102;104360;-78
2022/05/27 02:04:17;;;;;;;16.57;7.10;;;;;;;17.13;53.68;100647.80;124289;1102;103224;-79
2022/05/27 02:06:56;;;;;;;17.00;7.13;;;;;;;17.13;54.01;100648.68;124227;1102;104188;-78
2022/05/27 02:09:35;;;;;;;18.13;7.67;;;;;;;17.06;53.46;100652.12;124219;1102;104243;-76
2022/05/27 02:12:11;;;;;;;22.37;9.43;;;;;;;17.00;53.60;100644.09;124138;1105;102664;-77
2022/05/27 02:14:49;;;;;;;21.80;10.10;;;;;;;16.97;54.41;100647.63;124121;1102;106898;-76
2022/05/27 02:17:27;;;;;;;23.33;10.60;;;;;;;16.94;54.38;100644.02;124111;1102;104271;-76
2022/05/27 02:20:04;;;;;;;23.90;10.60;;;;;;;16.93;54.14;100644.91;124215;1102;104169;-76
2022/05/27 02:22:40;;;;;;;18.63;9.43;;;;;;;16.92;54.69;100638.70;124170;1102;102768;-76
2022/05/27 02:25:18;;;;;;;21.33;9.10;;;;;;;16.92;54.23;100644.00;124142;1102;103544;-77
2022/05/27 02:27:56;;;;;;;18.53;8.63;;;;;;;16.91;54.64;100641.33;124100;1105;104201;-76
2022/05/27 02:30:31;;;;;;;16.60;7.93;;;;;;;16.89;54.54;100642.23;124118;1105;104695;-76
2022/05/27 02:36:03;;;;;;;18.33;8.70;;;;;;;16.97;54.50;100647.63;124218;1102;104186;-76
2022/05/27 02:38:37;;;;;;;20.25;8.70;;;;;;;17.01;55.13;100646.77;124166;1102;104896;-76
2022/05/27 02:41:24;;;;;;;24.13;9.03;;;;;;;17.04;55.03;100643.27;124250;1102;104175;-76
2022/05/27 02:44:08;;;;;;;21.53;8.67;;;;;;;17.06;54.95;100652.12;124161;1102;104387;-77
2022/05/27 02:46:49;;;;;;;21.40;9.80;;;;;;;17.04;54.99;100648.58;124210;1102;102675;-76
2022/05/27 02:49:29;;;;;;;24.87;10.83;;;;;;;17.10;55.39;100643.34;124221;1102;104188;-77
2022/05/27 02:52:12;;;;;;;24.40;10.83;;;;;;;17.16;54.91;100646.06;124218;1102;104172;-76
2022/05/27 02:54:49;;;;;;;25.47;12.63;;;;;;;17.20;54.66;100655.84;124191;1101;102464;-77
2022/05/27 02:57:28;;;;;;;30.90;14.00;;;;;;;17.22;54.93;100663.81;124221;1102;103092;-77
2022/05/27 03:00:03;;;;;;;31.85;15.25;;;;;;;17.20;55.76;100660.23;124114;1103;104172;-77
2022/05/27 03:02:35;;;;;;;31.83;15.77;;;;;;;17.24;55.19;100668.23;124218;1102;102817;-77
2022/05/27 03:05:09;;;;;;;30.90;15.63;;;;;;;17.31;55.63;100663.91;124194;1102;104185;-76
2022/05/27 03:07:51;;;;;;;32.33;15.97;;;;;;;17.34;55.33;100660.39;124132;1102;102117;-76
2022/05/27 03:10:34;;;;;;;28.40;13.70;;;;;;;17.30;55.39;100663.90;124236;1102;103995;-76
2022/05/27 03:13:26;;;;;;;29.83;13.87;;;;;;;17.26;55.40;100668.25;124078;1106;104396;-77
2022/05/27 03:16:08;;;;;;;29.10;13.70;;;;;;;17.23;55.71;100665.57;124217;1101;104239;-76
2022/05/27 03:18:54;;;;;;;34.50;13.90;;;;;;;17.28;55.80;100669.19;124238;1102;104153;-76
2022/05/27 03:21:34;;;;;;;30.70;14.00;;;;;;;17.37;55.53;100671.02;124078;1105;104238;-76
2022/05/27 03:24:19;;;;;;;31.67;14.67;;;;;;;17.42;55.70;100667.56;124094;1102;104280;-76
2022/05/27 03:27:03;;;;;;;25.77;12.53;;;;;;;17.45;55.77;100668.45;124149;1102;102295;-76
2022/05/27 03:29:45;;;;;;;26.05;11.83;;;;;;;17.48;55.96;100656.10;124171;1102;104297;-76
2022/05/27 03:32:26;;;;;;;24.20;11.87;;;;;;;17.55;55.88;100657.95;124155;1102;102775;-76
2022/05/27 03:35:07;;;;;;;25.30;11.53;;;;;;;17.66;55.74;100665.14;124263;1102;104162;-76
2022/05/27 03:37:45;;;;;;;25.30;11.63;;;;;;;17.73;55.58;100666.95;124187;1102;104238;-76
2022/05/27 03:40:23;;;;;;;25.60;11.57;;;;;;;17.82;55.79;100669.69;124094;1102;104365;-77
2022/05/27 03:42:57;;;;;;;26.60;11.60;;;;;;;17.88;55.67;100663.55;124229;1102;102788;-77
2022/05/27 03:45:28;;;;;;;26.00;11.70;;;;;;;17.95;55.65;100668.96;124139;1102;104188;-77
2022/05/27 03:48:00;;;;;;;26.40;10.50;;;;;;;17.99;55.56;100663.68;124164;1102;104173;-77
2022/05/27 03:50:34;;;;;;;22.93;10.47;;;;;;;18.00;55.54;100670.74;124125;1105;104831;-77
2022/05/27 03:53:06;;;;;;;20.27;9.43;;;;;;;18.00;55.61;100669.00;124034;1103;104319;-77
2022/05/27 03:55:44;;;;;;;20.13;9.33;;;;;;;17.98;56.11;100669.85;124112;1102;103149;-77
2022/05/27 03:58:19;;;;;;;20.55;8.95;;;;;;;17.94;55.89;100667.17;124183;1102;104702;-77
2022/05/27 04:00:51;;;;;;;17.93;8.20;;;;;;;17.91;56.11;100672.45;124173;1102;104794;-77
2022/05/27 04:03:25;;;;;;;15.55;7.60;;;;;;;17.84;56.09;100673.27;124184;1103;103470;-76
2022/05/27 04:05:58;;;;;;;19.23;8.33;;;;;;;17.75;56.08;100675.84;124201;1102;104270;-76
2022/05/27 04:08:31;;;;;;;15.05;7.35;;;;;;;17.55;56.03;100657.95;124190;1102;104290;-76
2022/05/27 04:11:02;;;;;;;15.60;7.17;;;;;;;17.54;55.85;100672.08;124078;1102;104259;-75
2022/05/27 04:13:33;;;;;;;20.33;8.20;;;;;;;17.50;55.92;100672.95;124116;1102;104179;-77
2022/05/27 04:16:05;;;;;;;18.97;7.30;;;;;;;17.49;55.52;100668.50;124479;1102;104220;-76
2022/05/27 04:18:37;;;;;;;14.00;6.83;;;;;;;17.50;55.85;100664.98;124360;1102;104629;-75
2022/05/27 04:21:10;;;;;;;15.33;6.93;;;;;;;17.54;55.48;100666.78;124519;1102;104195;-76
2022/05/27 04:23:42;;;;;;;17.25;6.80;;;;;;;17.58;55.53;100667.72;124614;1102;102683;-76
2022/05/27 04:26:15;;;;;;;15.43;6.80;;;;;;;17.65;55.45;100676.62;124451;1102;102887;-76
2022/05/27 04:28:48;;;;;;;14.37;6.23;;;;;;;17.71;55.46;100684.64;124831;1102;104166;-76
2022/05/27 04:31:20;;;;;;;16.23;6.70;;;;;;;17.75;55.36;100681.15;124641;1102;104201;-77
2022/05/27 04:33:52;;;;;;;15.67;5.43;;;;;;;17.81;55.18;100675.89;124572;1102;104269;-77
2022/05/27 04:36:24;;;;;;;14.63;5.70;;;;;;;17.85;54.99;100682.11;124456;1102;102416;-77
2022/05/27 04:38:57;;;;;;;11.07;5.53;;;;;;;17.86;54.89;100684.78;124466;1102;102159;-77
2022/05/27 04:41:27;;;;;;;;;;;;;;;17.89;54.59;100684.84;124499;1102;104208;-77
2022/05/27 04:44:00;;;;;;;10.63;5.27;;;;;;;17.98;54.58;100683.12;124564;1102;102759;-77
2022/05/27 04:46:32;;;;;;;10.10;5.17;;;;;;;18.08;54.69;100685.00;124420;1102;104182;-77
2022/05/27 04:49:05;;;;;;;13.03;5.03;;;;;;;18.16;54.47;100687.71;124705;1101;104261;-77
2022/05/27 04:51:38;;;;;;;14.05;5.65;;;;;;;18.23;54.34;100685.11;124645;1102;102222;-77
2022/05/27 04:54:10;;;;;;;10.87;5.17;;;;;;;18.31;54.48;100686.05;124527;1102;104201;-77
2022/05/27 04:56:41;;;;;;;12.23;5.53;;;;;;;18.37;54.59;100692.27;124416;1102;103243;-77
2022/05/27 04:59:13;;;;;;;12.03;5.13;;;;;;;18.38;54.36;100686.09;124296;1102;104319;-76
2022/05/27 05:01:45;;;;;;;11.30;5.20;;;;;;;18.41;54.32;100688.77;124445;1102;103101;-77
2022/05/27 05:04:18;;;;;;;14.97;5.60;;;;;;;18.44;54.54;100684.34;124489;1102;103321;-77
2022/05/27 05:06:52;;;;;;;11.27;4.77;;;;;;;18.51;53.92;100690.58;124416;1102;104291;-78
2022/05/27 05:09:25;;;;;;;11.27;5.13;;;;;;;18.55;54.14;100687.08;124385;1105;102911;-76
2022/05/27 05:11:56;;;;;;;15.37;5.03;;;;;;;18.60;53.80;100679.13;124279;1102;104156;-77
2022/05/27 05:14:28;;;;;;;9.23;4.93;;;;;;;18.64;53.79;100684.47;124428;1105;104268;-77
2022/05/27 05:17:02;;;;;;;11.87;5.27;;;;;;;18.70;53.96;100680.97;124276;1102;104278;-77
2022/05/27 05:19:35;;;;;;;13.80;5.50;;;;;;;18.76;54.11;100682.75;124309;1102;104263;-77
2022/05/27 05:22:07;;;;;;;18.12;6.28;;;;;;;18.82;53.93;100685.44;124300;1102;104983;-77
2022/05/27 05:24:38;;;;;;;14.77;5.10;;;;;;;18.87;53.42;100681.09;124202;1102;104255;-77
2022/05/27 05:27:11;;;;;;;10.97;4.80;;;;;;;18.92;53.59;100681.98;124344;1102;102756;-77
2022/05/27 05:29:46;;;;;;;15.07;4.93;;;;;;;18.99;54.23;100680.23;124542;1102;104243;-76
2022/05/27 05:32:18;;;;;;;15.77;4.80;;;;;;;19.09;53.33;100683.81;124459;1102;104281;-76
2022/05/27 05:34:50;;;;;;;13.33;4.90;;;;;;;19.17;53.76;100679.42;124312;1102;102800;-77
2022/05/27 05:37:22;;;;;;;13.20;5.00;;;;;;;19.23;53.06;100682.11;124475;1102;104226;-77
2022/05/27 05:39:54;;;;;;;12.23;4.83;;;;;;;19.32;53.11;100682.14;124422;1102;102162;-79
2022/05/27 05:42:26;;;;;;;12.63;4.80;;;;;;;19.42;53.72;100684.82;124295;1103;103621;-77
2022/05/27 05:44:59;;;;;;;12.70;4.70;;;;;;;19.51;53.24;100677.73;124442;1102;104267;-77
2022/05/27 05:47:32;;;;;;;10.27;4.43;;;;;;;19.61;53.27;100686.61;124535;1102;102272;-77
2022/05/27 05:50:08;;;;;;;13.80;4.33;;;;;;;19.72;52.53;100682.19;124423;1102;104230;-79
2022/05/27 05:52:42;;;;;;;10.73;4.73;;;;;;;19.82;51.92;100684.89;125467;1101;102932;-78
2022/05/27 05:55:15;;;;;;;10.50;4.50;;;;;;;19.94;52.72;100692.88;124689;1102;104054;-79
2022/05/27 05:57:49;;;;;;;12.03;4.15;;;;;;;20.08;52.40;100687.56;124394;1102;102721;-78
2022/05/27 06:00:24;;;;;;;8.70;4.07;;;;;;;20.24;51.51;100689.34;124332;1102;103837;-78
2022/05/27 06:02:58;;;;;;;13.77;4.43;;;;;;;20.45;51.22;100685.73;124617;1102;103155;-80
2022/05/27 06:05:37;;;;;;;8.37;3.97;;;;;;;20.67;51.60;100691.05;124331;1102;102971;-78
2022/05/27 06:08:11;;;;;;;11.87;3.87;;;;;;;20.87;50.44;100682.99;124791;1102;102404;-80
2022/05/27 06:14:30;;;;;;;8.33;3.70;;;;;;;21.40;50.17;100686.29;125316;1105;103177;-78
2022/05/27 06:20:09;;;;;;;9.90;3.50;;;;;;;21.82;48.79;100681.58;124627;1105;118704;-79
2022/05/27 06:22:46;;;;;;;9.77;3.80;;;;;;;21.94;48.89;100677.03;124470;1105;104261;-78
2022/05/27 06:25:21;;;;;;;10.47;3.77;;;;;;;22.04;49.08;100686.75;125006;1106;104114;-78
2022/05/27 06:34:23;;;;;;;9.20;3.57;;;;;;;22.11;48.33;100683.14;124280;1105;103722;-78
2022/05/27 06:36:35;;;;;;;6.20;3.47;;;;;;;22.35;47.43;100675.81;124580;1105;103004;-77
2022/05/27 06:39:09;;;;;;;6.87;3.10;;;;;;;22.41;47.72;100683.78;124888;1106;103052;-82
2022/05/27 06:41:48;;;;;;;9.60;3.23;;;;;;;22.47;46.65;100670.34;124862;1106;104404;-79
2022/05/27 06:44:40;;;;;;;6.60;3.23;;;;;;;22.55;47.29;100675.61;124990;1105;103317;-80
2022/05/27 06:47:17;;;;;;;6.03;3.30;;;;;;;22.67;46.52;100671.89;124898;1105;102806;-79
2022/05/27 06:49:57;;;;;;;8.13;3.20;;;;;;;22.78;46.76;100667.30;125039;1105;104272;-78
2022/05/27 06:55:53;;;;;;;9.03;3.58;;;;;;;23.09;45.92;100674.98;124657;1101;103664;-81
2022/05/27 06:59:05;;;;;;;5.30;2.80;;;;;;;23.28;44.61;100681.86;124959;1102;102683;-80
2022/05/27 07:01:42;;;;;;;8.53;3.60;;;;;;;23.43;44.67;100674.52;125342;1102;117752;-80
2022/05/27 07:04:23;;;;;;;7.33;3.20;;;;;;;23.55;44.74;100668.10;125305;1103;103912;-80
2022/05/27 07:06:58;;;;;;;5.37;3.00;;;;;;;23.63;43.83;100674.22;125613;1102;104207;-79
2022/05/27 07:09:35;;;;;;;9.07;3.10;;;;;;;23.75;44.08;100684.74;124541;1105;104159;-80
2022/05/27 07:12:16;;;;;;;8.93;3.10;;;;;;;23.80;43.57;100674.83;124781;1102;104185;-79
2022/05/27 07:15:26;;;;;;;9.13;2.90;;;;;;;23.85;43.42;100680.14;124780;1102;102691;-81
2022/05/27 07:18:24;;;;;;;7.10;2.83;;;;;;;23.91;42.91;100677.36;125239;1102;105433;-81
2022/05/27 07:21:22;;;;;;;8.60;2.80;;;;;;;23.90;42.27;100680.94;125223;1102;103224;-80
2022/05/27 07:24:18;;;;;;;6.40;2.43;;;;;;;23.87;42.31;100672.95;125321;1102;104146;-78
2022/05/27 07:27:05;;;;;;;8.85;3.10;;;;;;;23.84;41.94;100670.33;124541;1102;104224;-77
2022/05/27 07:29:51;;;;;;;8.00;3.00;;;;;;;23.86;42.19;100674.76;124434;1102;104156;-82
2022/05/27 07:36:30;;;;;;;6.40;3.00;;;;;;;23.97;41.79;100663.86;125314;1102;103099;-80
2022/05/27 07:40:15;;;;;;;3.57;2.30;;;;;;;24.07;41.52;100664.58;125181;1106;104281;-79
2022/05/27 07:43:32;;;;;;;10.13;2.60;;;;;;;24.27;40.94;100669.59;125438;1105;102021;-80
2022/05/27 07:46:19;;;;;;;;;;;;;;;;;;;;;
2022/05/27 07:49:17;;;;;;;8.80;2.40;;;;;;;24.38;40.77;100654.17;125533;1102;103676;-81
2022/05/27 07:52:13;;;;;;;5.17;2.20;;;;;;;24.39;40.30;100660.44;125364;1102;104187;-80
2022/05/27 07:58:01;;;;;;;6.63;2.13;;;;;;;24.61;39.58;100647.52;124921;1102;104284;-79
2022/05/27 08:00:53;;;;;;;6.03;2.57;;;;;;;24.81;39.21;100646.22;124945;1102;105673;-80
2022/05/27 08:03:42;;;;;;;2.90;2.20;;;;;;;25.05;37.69;100640.33;124892;1102;108241;-78
2022/05/27 08:06:20;;;;;;;5.83;2.30;;;;;;;25.21;37.83;100639.98;124858;1102;104121;-81
2022/05/27 08:09:14;;;;;;;4.50;2.40;;;;;;;25.40;38.38;100636.00;125701;1102;104185;-81
2022/05/27 08:12:18;;;;;;;4.97;2.60;;;;;;;25.63;38.11;100637.23;126022;1099;105201;-80
2022/05/27 08:15:02;;;;;;;3.67;2.20;;;;;;;25.81;37.27;100634.09;125290;1099;104360;-81
2022/05/27 08:17:55;;;;;;;6.13;2.30;;;;;;;26.02;36.83;100626.42;126040;1099;104115;-80
2022/05/27 08:20:44;;;;;;;3.87;2.60;;;;;;;26.16;36.50;100613.52;126162;1100;104291;-81
2022/05/27 08:23:19;;;;;;;5.20;2.20;;;;;;;26.31;36.96;100612.19;125889;1099;103663;-82
2022/05/27 08:25:58;;;;;;;4.57;2.57;;;;;;;26.45;36.33;100610.94;126093;1099;103133;-82
2022/05/27 08:28:35;;;;;;;6.27;2.60;;;;;;;26.44;36.46;100615.41;125957;1099;104220;-82
2022/05/27 08:31:16;;;;;;;5.53;2.40;;;;;;;26.55;36.23;100607.03;126258;1098;104120;-81
2022/05/27 08:39:53;;;;;;;7.97;2.37;;;;;;;26.89;35.76;100592.62;125278;1099;104185;-80
2022/05/27 08:42:47;;;;;;;5.17;2.30;;;;;;;26.98;35.21;100603.10;126086;1099;104262;-79
2022/05/27 08:45:27;;;;;;;4.15;2.50;;;;;;;27.08;35.29;100591.12;124980;1099;104172;-80
2022/05/27 08:48:11;;;;;;;4.67;2.10;;;;;;;27.12;34.75;100591.91;126212;1099;104166;-80
2022/05/27 08:50:50;;;;;;;11.53;2.47;;;;;;;27.18;34.97;100594.41;126238;1099;104264;-80
2022/05/27 08:53:33;;;;;;;3.87;2.37;;;;;;;27.30;34.68;100592.24;124900;1099;103470;-80
2022/05/27 09:01:58;;;;;;;5.23;2.33;;;;;;;27.38;34.73;100574.94;126273;1099;104190;-79
2022/05/27 09:04:36;;;;;;;4.53;2.50;;;;;;;27.33;34.04;100570.62;125412;1098;104694;-81
2022/05/27 09:07:23;;;;;;;3.80;2.60;;;;;;;27.27;33.76;100566.30;125189;1099;103710;-81
2022/05/27 09:09:54;;;;;;;8.20;3.03;;;;;;;27.29;33.37;100574.34;125348;1099;103642;-80
2022/05/27 09:12:41;;;;;;;9.33;2.80;;;;;;;27.16;34.03;100560.36;125308;1099;104204;-81
2022/05/27 09:15:36;;;;;;;5.37;2.60;;;;;;;26.96;32.89;100559.20;126381;1099;102543;-81
2022/05/27 09:18:35;;;;;;;4.27;2.47;;;;;;;26.74;33.42;100558.98;126267;1099;104226;-81
2022/05/27 09:21:28;;;;;;;9.23;2.47;;;;;;;26.60;33.52;100559.37;126261;1099;102691;-81
2022/05/27 09:24:32;;;;;;;5.27;2.93;;;;;;;26.83;33.01;100550.64;125462;1098;104061;-81
2022/05/27 09:27:22;;;;;;;3.13;2.10;;;;;;;27.18;33.60;100545.92;126350;1099;102407;-81
2022/05/27 09:30:07;;;;;;;3.63;2.10;;;;;;;27.47;33.30;100546.79;125741;1099;104111;-80
2022/05/27 09:33:04;;;;;;;6.43;2.27;;;;;;;27.76;33.14;100534.14;125877;1099;104214;-81
2022/05/27 09:35:45;;;;;;;6.13;2.37;;;;;;;28.02;32.95;100537.73;124940;1102;102860;-80
2022/05/27 09:38:27;;;;;;;5.30;2.77;;;;;;;28.13;32.58;100532.85;124923;1102;104284;-80
2022/05/27 09:41:06;;;;;;;10.27;2.77;;;;;;;28.08;31.98;100532.12;125050;1103;103495;-80
2022/05/27 09:43:48;;;;;;;5.57;2.30;;;;;;;28.16;31.88;100521.95;124892;1102;104268;-80
2022/05/27 09:46:30;;;;;;;1.67;1.53;;;;;;;28.30;31.35;100527.70;124976;1099;104424;-80
2022/05/27 09:49:16;;;;;;;2.93;2.07;;;;;;;28.23;31.10;100520.77;124944;1102;104169;-81
2022/05/27 09:52:08;;;;;;;6.67;2.20;;;;;;;28.27;31.35;100521.55;125105;1102;104275;-80
2022/05/27 09:55:17;;;;;;;4.17;2.00;;;;;;;28.34;31.44;100517.66;125543;1103;104351;-82
2022/05/27 10:01:29;;;;;;;6.17;2.20;;;;;;;28.28;30.56;100508.01;125618;1102;104012;-80
2022/05/27 10:04:14;;;;;;;7.57;2.20;;;;;;;28.29;31.13;100504.34;124906;1103;103025;-79
2022/05/27 10:06:47;;;;;;;6.03;2.57;;;;;;;28.33;31.14;100507.83;124757;1098;103326;-80
2022/05/27 10:09:35;;;;;;;6.22;2.75;;;;;;;28.25;30.62;100504.52;125634;1099;102600;-81
2022/05/27 10:12:11;;;;;;;4.93;1.90;;;;;;;28.32;30.25;100493.44;124718;1099;102880;-80
2022/05/27 10:14:54;;;;;;;2.93;1.97;;;;;;;28.46;30.42;100489.34;125755;1099;104201;-81
2022/05/27 10:17:36;;;;;;;4.23;2.30;;;;;;;28.75;30.44;100487.33;125655;1099;104102;-79
2022/05/27 10:20:29;;;;;;;4.87;2.03;;;;;;;28.87;30.48;100484.14;126757;1099;102954;-80
2022/05/27 10:23:04;;;;;;;2.17;1.77;;;;;;;28.72;29.94;100479.35;126430;1099;102996;-80
2022/05/27 10:25:41;;;;;;;5.77;2.13;;;;;;;28.76;30.08;100472.90;126906;1099;102568;-80
2022/05/27 10:28:29;;;;;;;4.97;2.10;;;;;;;28.92;30.17;100470.45;126797;1099;102714;-81
2022/05/27 10:31:04;;;;;;;3.07;1.90;;;;;;;28.96;29.71;100461.28;126797;1099;102483;-79
2022/05/27 10:33:44;;;;;;;8.23;2.63;;;;;;;28.99;29.58;100463.86;125888;1099;103631;-78
2022/05/27 10:36:42;;;;;;;2.10;1.90;;;;;;;29.10;29.69;100460.71;125002;1102;102968;-81
2022/05/27 10:39:22;;;;;;;6.15;2.20;;;;;;;29.11;29.14;100454.34;125184;1102;104294;-80
2022/05/27 10:42:12;;;;;;;4.60;2.10;;;;;;;29.36;29.37;100451.53;124745;1099;104319;-80
2022/05/27 10:44:58;;;;;;;4.07;1.83;;;;;;;29.56;28.93;100435.31;124646;1102;104195;-80
2022/05/27 10:48:16;;;;;;;3.70;2.23;;;;;;;29.53;29.33;100438.16;124700;1099;118905;-80
2022/05/27 10:51:17;;;;;;;;;;;;;;;;;;;;;
2022/05/27 10:54:15;;;;;;;6.77;1.90;;;;;;;29.26;28.76;100437.52;124705;1099;103828;-77
2022/05/27 11:03:20;;;;;;;3.03;1.87;;;;;;;28.35;28.48;100421.44;124979;1102;103481;-79
2022/05/27 11:06:22;;;;;;;3.07;1.67;;;;;;;28.25;29.10;100421.80;124815;1102;104262;-77
2022/05/27 11:09:15;;;;;;;2.33;1.90;;;;;;;28.42;28.59;100420.23;125232;1099;102900;-78
2022/05/27 11:11:59;;;;;;;6.47;1.90;;;;;;;28.61;28.90;100415.90;125215;1099;104095;-79
2022/05/27 11:18:13;;;;;;;2.33;1.53;;;;;;;28.94;28.57;100407.34;126087;1099;103534;-79
2022/05/27 11:20:56;;;;;;;;;;;;;;;28.98;26.99;100405.38;125770;1099;102855;-79
2022/05/27 11:23:58;;;;;;;5.53;1.83;;;;;;;28.72;27.81;100403.76;125400;1099;102360;-78
2022/05/27 11:27:02;;;;;;;5.37;2.00;;;;;;;28.43;27.90;100395.02;126282;1099;102520;-80
2022/05/27 11:30:27;;;;;;;3.40;1.80;;;;;;;28.48;28.22;100395.70;126298;1098;102071;-79
2022/05/27 11:37:34;;;;;;;4.70;1.80;;;;;;;28.98;28.34;100392.73;125648;1104;104667;-79
2022/05/27 11:40:49;;;;;;;5.97;2.17;;;;;;;28.93;28.18;100377.70;125647;1103;104261;-80
2022/05/27 11:43:56;;;;;;;2.70;2.00;;;;;;;28.73;27.80;100368.59;125721;1103;102330;-80
2022/05/27 11:47:23;;;;;;;1.97;1.63;;;;;;;28.61;27.91;100364.61;125315;1105;104169;-81
2022/05/27 11:50:41;;;;;;;8.37;1.80;;;;;;;28.77;27.44;100369.37;125624;1102;103512;-80
2022/05/27 11:54:04;;;;;;;;;;;;;;;;;;;;;
2022/05/27 11:57:01;;;;;;;2.43;1.70;;;;;;;29.01;27.04;100365.59;125315;1105;104172;-79
2022/05/27 12:03:34;;;;;;;4.70;1.53;;;;;;;29.20;27.12;100346.82;125439;1109;104466;-78
2022/05/27 12:06:43;;;;;;;3.40;1.90;;;;;;;29.21;26.62;100348.55;125193;1109;103541;-82
2022/05/27 12:09:42;;;;;;;4.17;2.00;;;;;;;29.27;26.93;100347.41;125058;1109;107665;-79
2022/05/27 12:12:33;;;;;;;4.00;1.72;;;;;;;29.30;26.80;100346.41;124947;1109;104293;-79
2022/05/27 12:15:14;;;;;;;4.93;2.10;;;;;;;29.25;26.54;100346.62;124888;1109;104284;-79
2022/05/27 12:18:12;;;;;;;4.23;1.77;;;;;;;29.22;26.74;100339.52;125059;1109;103740;-79
2022/05/27 12:21:03;;;;;;;3.00;1.80;;;;;;;29.00;26.59;100327.85;125133;1109;103461;-82
2022/05/27 12:24:06;;;;;;;3.70;1.92;;;;;;;28.98;26.68;100318.95;125105;1109;104084;-81
2022/05/27 12:27:04;;;;;;;3.20;1.80;;;;;;;28.97;26.96;100323.48;125379;1105;104191;-81
2022/05/27 12:29:58;;;;;;;3.50;1.77;;;;;;;28.91;27.08;100322.88;125379;1102;104319;-80
2022/05/27 12:32:50;;;;;;;4.70;2.10;;;;;;;28.92;27.12;100313.81;125434;1102;103230;-79
2022/05/27 12:35:44;;;;;;;7.20;2.13;;;;;;;28.92;27.37;100313.81;125302;1102;104155;-78
2022/05/27 12:38:47;;;;;;;3.13;1.80;;;;;;;28.85;27.24;100308.68;125586;1102;102423;-80
2022/05/27 12:41:37;;;;;;;4.85;2.10;;;;;;;28.86;27.46;100305.05;125676;1099;104169;-79
2022/05/27 12:44:32;;;;;;;5.57;2.50;;;;;;;28.87;27.22;100300.52;126151;1099;104502;-78
2022/05/27 12:47:14;;;;;;;3.77;2.17;;;;;;;28.83;27.37;100298.91;126086;1099;102919;-78
2022/05/27 12:49:59;;;;;;;4.80;2.20;;;;;;;28.77;27.66;100300.05;126100;1099;102583;-80
2022/05/27 12:52:58;;;;;;;7.27;2.43;;;;;;;28.68;27.52;100301.30;126046;1099;104210;-81
2022/05/27 13:01:50;;;;;;;7.57;2.40;;;;;;;28.75;27.94;100269.55;125621;1099;104163;-80
2022/05/27 13:04:51;;;;;;;2.70;2.20;;;;;;;28.74;28.21;100273.17;126190;1099;104264;-79
2022/05/27 13:07:47;;;;;;;4.93;2.07;;;;;;;28.80;28.03;100262.11;125255;1099;103559;-78
2022/05/27 13:10:44;;;;;;;9.13;2.40;;;;;;;28.82;27.94;100267.45;125167;1098;103725;-79
2022/05/27 13:13:25;;;;;;;4.37;2.13;;;;;;;28.78;28.25;100266.71;125314;1099;110125;-77
2022/05/27 13:16:09;;;;;;;4.30;1.90;;;;;;;28.80;28.12;100267.51;125053;1099;102372;-76
2022/05/27 13:18:53;;;;;;;2.90;1.80;;;;;;;28.78;28.17;100261.31;125136;1099;104378;-76
2022/05/27 13:21:48;;;;;;;4.57;2.30;;;;;;;28.71;28.01;100250.84;124997;1099;104392;-76
2022/05/27 13:24:40;;;;;;;5.57;2.07;;;;;;;28.67;27.94;100253.68;125263;1099;103752;-78